Time;durP1;ratioP1;P1;durP2;ratioP2;P2;SDS_P1;SDS_P2;PMS_P1;PMS_P2;Temp;Humidity;BMP_temperature;BMP_pressure;BME280_temperature;BME280_humidity;BME280_pressure;Samples;Min_cycle;Max_cycle;Signal;HPM_P1;HPM_P2
2023/06/01 00:00:00;;;;;;;6.32;4.00;;;18.40;99.90;;;;;;4160048;28;20045;-60
2023/06/01 00:02:00;;;;;;;5.45;3.67;;;18.30;99.90;;;;;;4154489;28;20076;-59
2023/06/01 00:04:01;;;;;;;6.57;4.03;;;18.30;99.90;;;;;;4156752;28;20437;-59
2023/06/01 00:06:01;;;;;;;6.43;4.45;;;18.30;99.90;;;;;;4159265;28;20119;-60
2023/06/01 00:08:04;;;;;;;7.80;4.65;;;18.20;99.90;;;;;;4158667;28;20033;-63
2023/06/01 00:10:05;;;;;;;9.75;4.35;;;18.10;99.90;;;;;;4159999;28;20397;-61
2023/06/01 00:12:07;;;;;;;8.73;4.43;;;18.00;99.90;;;;;;4159468;28;20041;-60
2023/06/01 00:14:07;;;;;;;7.15;4.20;;;18.00;99.90;;;;;;4157303;28;20087;-59
2023/06/01 00:16:08;;;;;;;7.82;4.90;;;18.00;99.90;;;;;;4160116;28;20112;-59
2023/06/01 00:18:12;;;;;;;9.07;5.03;;;18.00;99.90;;;;;;4161881;28;20040;-60
2023/06/01 00:20:13;;;;;;;8.27;4.90;;;18.00;99.90;;;;;;4161484;28;20068;-60
2023/06/01 00:22:13;;;;;;;7.45;4.32;;;17.90;99.90;;;;;;4161680;28;20041;-60
2023/06/01 00:24:14;;;;;;;9.02;4.78;;;17.80;99.90;;;;;;4161210;28;20033;-59
2023/06/01 00:26:15;;;;;;;10.23;4.55;;;17.80;99.90;;;;;;4158831;28;20374;-59
2023/06/01 00:28:16;;;;;;;9.50;4.70;;;17.80;99.90;;;;;;4161286;28;20492;-60
2023/06/01 00:30:16;;;;;;;6.75;4.43;;;17.80;99.90;;;;;;4161162;28;20038;-59
2023/06/01 00:32:17;;;;;;;7.35;4.30;;;17.70;99.90;;;;;;4158443;28;20040;-59
2023/06/01 00:34:17;;;;;;;10.63;4.63;;;17.70;99.90;;;;;;4160263;28;20484;-59
2023/06/01 00:36:19;;;;;;;8.00;4.35;;;17.70;99.90;;;;;;4160276;28;20057;-60
2023/06/01 00:38:20;;;;;;;9.25;4.78;;;17.70;99.90;;;;;;4162372;28;20041;-59
2023/06/01 00:40:20;;;;;;;7.88;4.53;;;17.60;99.90;;;;;;4161085;28;20041;-59
2023/06/01 00:42:21;;;;;;;7.55;4.80;;;17.60;99.90;;;;;;4162243;28;20578;-59
2023/06/01 00:44:21;;;;;;;9.43;5.05;;;17.60;99.90;;;;;;4161335;28;20029;-60
2023/06/01 00:46:22;;;;;;;9.07;4.78;;;17.50;99.90;;;;;;4158963;28;20049;-59
2023/06/01 00:48:23;;;;;;;8.43;5.32;;;17.50;99.90;;;;;;4161299;28;20037;-59
2023/06/01 00:50:24;;;;;;;12.30;5.40;;;17.40;99.90;;;;;;4159929;28;20037;-59
2023/06/01 00:52:24;;;;;;;7.43;5.20;;;17.30;99.90;;;;;;4160921;28;20053;-59
2023/06/01 00:54:25;;;;;;;10.35;5.10;;;17.30;99.90;;;;;;4160708;28;20033;-59
2023/06/01 00:56:26;;;;;;;6.53;5.32;;;17.30;99.90;;;;;;4159799;28;20040;-59
2023/06/01 00:58:26;;;;;;;9.90;5.40;;;17.30;99.90;;;;;;4161304;28;20060;-60
2023/06/01 01:00:29;;;;;;;6.95;4.38;;;17.20;99.90;;;;;;4160987;28;20042;-59
2023/06/01 01:02:31;;;;;;;8.20;5.15;;;17.20;99.90;;;;;;4159819;28;20048;-59
2023/06/01 01:04:32;;;;;;;7.55;4.72;;;17.10;99.90;;;;;;4155641;28;20060;-59
2023/06/01 01:07:01;;;;;;;8.02;4.70;;;17.20;99.90;;;;;;4158384;28;20045;-65
2023/06/01 01:09:17;;;;;;;8.95;5.22;;;17.10;99.90;;;;;;4156604;28;20430;-59
2023/06/01 01:11:26;;;;;;;8.50;5.32;;;17.10;99.90;;;;;;4173408;28;20403;-59
2023/06/01 01:13:50;;;;;;;11.50;5.32;;;17.10;99.90;;;;;;4160948;28;20045;-59
2023/06/01 01:16:02;;;;;;;7.80;4.75;;;17.00;99.90;;;;;;4145414;28;20021;-59
2023/06/01 01:18:07;;;;;;;10.30;5.20;;;17.00;99.90;;;;;;4159408;28;20083;-64
2023/06/01 01:20:22;;;;;;;11.75;5.03;;;16.90;99.90;;;;;;4157989;28;20037;-60
2023/06/01 01:22:41;;;;;;;13.55;5.45;;;16.90;99.90;;;;;;4159168;28;20041;-59
2023/06/01 01:25:20;;;;;;;9.07;5.57;;;16.90;99.90;;;;;;4156679;28;20033;-59
2023/06/01 01:27:46;;;;;;;12.50;5.70;;;16.80;99.90;;;;;;4154455;28;20044;-59
2023/06/01 01:29:48;;;;;;;12.93;6.03;;;16.80;99.90;;;;;;4157855;28;20037;-60
2023/06/01 01:31:50;;;;;;;8.88;5.97;;;16.80;99.90;;;;;;4156932;28;20108;-59
2023/06/01 01:33:53;;;;;;;10.85;5.43;;;16.70;99.90;;;;;;4159380;28;20037;-59
2023/06/01 01:35:55;;;;;;;7.40;5.45;;;16.70;99.90;;;;;;4155947;28;20033;-59
2023/06/01 01:37:56;;;;;;;7.53;4.90;;;16.70;99.90;;;;;;4158878;28;20493;-59
2023/06/01 01:39:56;;;;;;;10.13;6.78;;;16.70;99.90;;;;;;4159858;28;20079;-60
2023/06/01 01:41:57;;;;;;;10.82;5.78;;;16.60;99.90;;;;;;4155835;28;20065;-59
2023/06/01 01:43:59;;;;;;;11.73;6.25;;;16.60;99.90;;;;;;4158362;28;20040;-59
2023/06/01 01:46:27;;;;;;;12.73;6.37;;;16.50;99.90;;;;;;4158942;28;20041;-59
2023/06/01 01:48:43;;;;;;;10.52;5.65;;;16.50;99.90;;;;;;4158848;28;20030;-59
2023/06/01 01:50:52;;;;;;;8.48;5.82;;;16.40;99.90;;;;;;4156854;28;20060;-59
2023/06/01 01:52:56;;;;;;;10.40;5.93;;;16.40;99.90;;;;;;4157681;28;20037;-59
2023/06/01 01:54:58;;;;;;;13.05;6.70;;;16.40;99.90;;;;;;4158813;28;20072;-59
2023/06/01 01:57:00;;;;;;;10.75;6.57;;;16.40;99.90;;;;;;4157644;28;20045;-59
2023/06/01 01:59:02;;;;;;;11.93;6.97;;;16.30;99.90;;;;;;4160692;28;20504;-59
2023/06/01 02:01:04;;;;;;;12.43;7.70;;;16.30;99.90;;;;;;4158789;28;20370;-63
2023/06/01 02:03:14;;;;;;;19.05;6.72;;;16.40;99.90;;;;;;4161006;28;20388;-59
2023/06/01 02:05:15;;;;;;;10.82;6.63;;;16.30;99.90;;;;;;4158625;28;20037;-59
2023/06/01 02:07:15;;;;;;;11.32;6.68;;;16.30;99.90;;;;;;4171993;28;20039;-59
2023/06/01 02:09:16;;;;;;;12.07;7.32;;;16.30;99.90;;;;;;4157732;28;20091;-59
2023/06/01 02:11:17;;;;;;;10.90;7.00;;;16.20;99.90;;;;;;4157675;28;20477;-60
2023/06/01 02:13:17;;;;;;;12.93;7.60;;;16.20;99.90;;;;;;4160090;28;20033;-59
2023/06/01 02:15:18;;;;;;;12.20;7.10;;;16.20;99.90;;;;;;4159450;28;20128;-59
2023/06/01 02:17:21;;;;;;;13.38;8.20;;;16.20;99.90;;;;;;4158635;28;20033;-59
2023/06/01 02:19:22;;;;;;;14.30;7.70;;;16.10;99.90;;;;;;4156473;28;20698;-59
2023/06/01 02:21:22;;;;;;;11.80;7.10;;;16.10;99.90;;;;;;4154800;28;20025;-59
2023/06/01 02:23:23;;;;;;;11.88;7.43;;;16.00;99.90;;;;;;4158953;28;20098;-59
2023/06/01 02:25:23;;;;;;;13.70;8.32;;;15.90;99.90;;;;;;4153243;28;20034;-59
2023/06/01 02:27:25;;;;;;;13.25;7.88;;;15.80;99.90;;;;;;4157478;28;20465;-59
2023/06/01 02:29:25;;;;;;;12.10;7.85;;;15.80;99.90;;;;;;4157331;28;20057;-59
2023/06/01 02:31:26;;;;;;;11.82;7.20;;;15.80;99.90;;;;;;4155357;28;20064;-59
2023/06/01 02:33:27;;;;;;;12.52;7.38;;;15.70;99.90;;;;;;4158897;28;20029;-59
2023/06/01 02:35:27;;;;;;;15.77;9.02;;;15.70;99.90;;;;;;4159017;28;20500;-59
2023/06/01 02:37:28;;;;;;;13.27;7.95;;;15.70;99.90;;;;;;4158653;28;20068;-59
2023/06/01 02:39:29;;;;;;;10.57;7.93;;;15.60;99.90;;;;;;4158767;28;20040;-59
2023/06/01 02:41:29;;;;;;;14.05;8.98;;;15.60;99.90;;;;;;4158987;28;20052;-59
2023/06/01 02:43:36;;;;;;;17.00;9.10;;;15.60;99.90;;;;;;4158222;28;20038;-59
2023/06/01 02:45:36;;;;;;;17.73;10.15;;;15.50;99.90;;;;;;4157384;28;20112;-60
2023/06/01 02:47:37;;;;;;;18.50;11.20;;;15.50;99.90;;;;;;4159436;28;20701;-59
2023/06/01 02:49:38;;;;;;;16.48;11.45;;;15.20;99.90;;;;;;4159909;28;20064;-59
2023/06/01 02:51:38;;;;;;;16.73;11.15;;;15.10;99.90;;;;;;4158778;28;20044;-59
2023/06/01 02:53:42;;;;;;;18.35;11.23;;;15.10;99.90;;;;;;4156488;28;20049;-60
2023/06/01 02:55:42;;;;;;;19.55;12.73;;;15.10;99.90;;;;;;4157756;28;20116;-59
2023/06/01 02:57:43;;;;;;;19.17;13.13;;;15.10;99.90;;;;;;4159134;28;20420;-59
2023/06/01 02:59:44;;;;;;;23.85;14.95;;;15.10;99.90;;;;;;4159836;28;20476;-59
2023/06/01 03:01:44;;;;;;;23.95;15.70;;;15.10;99.90;;;;;;4156690;28;20392;-59
2023/06/01 03:03:46;;;;;;;23.05;16.08;;;15.10;99.90;;;;;;4155625;28;20385;-59
2023/06/01 03:05:47;;;;;;;23.70;16.23;;;15.10;99.90;;;;;;4158188;28;20033;-60
2023/06/01 03:07:49;;;;;;;22.98;16.55;;;15.10;99.90;;;;;;4156499;28;20029;-60
2023/06/01 03:09:49;;;;;;;26.92;17.73;;;14.90;99.90;;;;;;4157809;28;20696;-60
2023/06/01 03:11:50;;;;;;;30.23;19.05;;;14.80;99.90;;;;;;4158643;28;20029;-60
2023/06/01 03:13:51;;;;;;;27.70;18.15;;;14.70;99.90;;;;;;4157719;28;20065;-59
2023/06/01 03:15:51;;;;;;;26.30;17.80;;;14.80;99.90;;;;;;4156008;28;20528;-59
2023/06/01 03:17:52;;;;;;;24.40;17.63;;;14.80;99.90;;;;;;4154966;28;20032;-59
2023/06/01 03:19:52;;;;;;;25.83;16.27;;;14.80;99.90;;;;;;4157946;28;20160;-60
2023/06/01 03:21:53;;;;;;;22.00;15.18;;;14.80;99.90;;;;;;4155440;28;20037;-60
2023/06/01 03:23:53;;;;;;;23.17;14.52;;;14.70;99.90;;;;;;4159112;28;20497;-59
2023/06/01 03:25:55;;;;;;;18.98;13.38;;;14.80;99.90;;;;;;4159863;28;20034;-60
2023/06/01 03:27:56;;;;;;;17.98;13.00;;;14.80;99.90;;;;;;4163460;28;20068;-59
2023/06/01 03:29:56;;;;;;;14.95;11.02;;;14.70;99.90;;;;;;4161229;28;20391;-59
2023/06/01 03:31:57;;;;;;;17.58;11.95;;;14.70;99.90;;;;;;4161433;28;20049;-59
2023/06/01 03:33:58;;;;;;;19.95;13.70;;;14.60;99.90;;;;;;4158917;28;20035;-59
2023/06/01 03:35:58;;;;;;;16.95;12.27;;;14.50;99.90;;;;;;4162305;28;20045;-59
2023/06/01 03:37:59;;;;;;;18.20;12.65;;;14.50;99.90;;;;;;4162618;28;20544;-59
2023/06/01 03:39:59;;;;;;;13.93;10.70;;;14.20;99.90;;;;;;4162962;28;20401;-59
2023/06/01 03:42:00;;;;;;;15.10;10.02;;;14.20;99.90;;;;;;4161577;28;20037;-59
2023/06/01 03:44:01;;;;;;;13.73;9.95;;;14.10;99.90;;;;;;4163269;28;20076;-59
2023/06/01 03:46:02;;;;;;;13.60;9.68;;;14.10;99.90;;;;;;4162099;28;20397;-59
2023/06/01 03:48:03;;;;;;;15.50;9.45;;;13.90;99.90;;;;;;4161223;28;20068;-59
2023/06/01 03:50:06;;;;;;;13.85;8.98;;;13.90;99.90;;;;;;4157916;28;20034;-60
2023/06/01 03:52:07;;;;;;;15.95;9.60;;;13.90;99.90;;;;;;4161242;28;20564;-59
2023/06/01 03:54:07;;;;;;;16.13;11.27;;;13.80;99.90;;;;;;4162160;28;20095;-59
2023/06/01 03:56:08;;;;;;;15.88;10.98;;;13.80;99.90;;;;;;4161591;28;20029;-59
2023/06/01 03:58:08;;;;;;;22.85;14.48;;;13.80;99.90;;;;;;4162580;28;20055;-59
2023/06/01 04:00:27;;;;;;;18.55;13.40;;;13.60;99.90;;;;;;4162154;28;20046;-59
2023/06/01 04:02:28;;;;;;;18.27;13.13;;;13.70;99.90;;;;;;4154632;28;20473;-59
2023/06/01 04:04:29;;;;;;;19.38;12.80;;;13.80;99.90;;;;;;4161894;28;20029;-59
2023/06/01 04:06:35;;;;;;;20.33;12.95;;;13.80;99.90;;;;;;4160001;28;20489;-59
2023/06/01 04:08:35;;;;;;;22.08;13.40;;;13.80;99.90;;;;;;4160339;28;20485;-60
2023/06/01 04:10:36;;;;;;;18.75;12.85;;;13.80;99.90;;;;;;4158559;28;20090;-60
2023/06/01 04:12:36;;;;;;;19.98;12.75;;;13.90;99.90;;;;;;4158414;28;20029;-59
2023/06/01 04:14:37;;;;;;;21.77;12.50;;;13.90;99.90;;;;;;4157050;28;20043;-59
2023/06/01 04:16:38;;;;;;;17.92;11.45;;;14.00;99.90;;;;;;4158014;28;20116;-59
2023/06/01 04:18:38;;;;;;;17.55;11.20;;;14.00;99.90;;;;;;4161292;28;20037;-59
2023/06/01 04:20:39;;;;;;;15.65;10.07;;;13.80;99.90;;;;;;4161511;28;20377;-59
2023/06/01 04:22:40;;;;;;;13.10;9.10;;;13.80;99.90;;;;;;4158943;28;20049;-59
2023/06/01 04:24:41;;;;;;;18.02;10.50;;;13.80;99.90;;;;;;4159938;28;20056;-59
2023/06/01 04:26:42;;;;;;;15.18;8.07;;;13.60;99.90;;;;;;4161459;28;20033;-59
2023/06/01 04:28:45;;;;;;;13.32;8.45;;;13.70;99.90;;;;;;4162545;28;20040;-59
2023/06/01 04:30:47;;;;;;;11.60;7.07;;;13.80;99.90;;;;;;4159874;28;20040;-60
2023/06/01 04:32:48;;;;;;;10.85;7.70;;;13.80;99.90;;;;;;4160963;28;20029;-59
2023/06/01 04:34:49;;;;;;;10.20;7.65;;;13.80;99.90;;;;;;4157998;28;20510;-59
2023/06/01 04:36:51;;;;;;;11.50;6.85;;;13.80;99.90;;;;;;4159329;28;20044;-59
2023/06/01 04:38:53;;;;;;;10.63;6.95;;;13.80;99.90;;;;;;4160542;28;20026;-60
2023/06/01 04:40:54;;;;;;;12.02;6.78;;;13.80;99.90;;;;;;4159985;28;20061;-73
2023/06/01 04:42:57;;;;;;;12.07;7.03;;;13.80;99.90;;;;;;4161502;28;20974;-74
2023/06/01 04:44:58;;;;;;;11.00;7.03;;;13.90;99.90;;;;;;4161350;28;20095;-73
2023/06/01 04:47:03;;;;;;;10.48;6.50;;;13.80;99.90;;;;;;4160096;28;20045;-74
2023/06/01 04:49:04;;;;;;;11.85;6.60;;;13.90;99.90;;;;;;4162118;28;20398;-73
2023/06/01 04:51:05;;;;;;;10.68;6.63;;;14.00;99.90;;;;;;4159531;28;20044;-73
2023/06/01 04:53:05;;;;;;;12.48;6.93;;;14.00;99.90;;;;;;4161324;28;20497;-71
2023/06/01 04:55:07;;;;;;;12.63;7.88;;;14.10;99.90;;;;;;4161686;28;20033;-72
2023/06/01 04:57:08;;;;;;;12.17;7.30;;;14.10;99.90;;;;;;4161766;28;20058;-73
2023/06/01 04:59:09;;;;;;;12.07;6.38;;;14.10;99.90;;;;;;4161052;28;20034;-72
2023/06/01 05:01:15;;;;;;;9.90;6.47;;;14.20;99.90;;;;;;4160573;28;20065;-72
2023/06/01 05:03:15;;;;;;;8.02;6.15;;;14.20;99.90;;;;;;4157124;28;20030;-72
2023/06/01 05:05:16;;;;;;;11.30;7.55;;;14.30;99.90;;;;;;4156897;28;20049;-72
2023/06/01 05:07:17;;;;;;;11.38;8.02;;;14.40;99.90;;;;;;4158069;28;20033;-72
2023/06/01 05:09:18;;;;;;;14.23;7.20;;;14.40;99.90;;;;;;4156896;28;20125;-72
2023/06/01 05:11:18;;;;;;;13.10;7.30;;;14.50;99.90;;;;;;4157892;28;20065;-72
2023/06/01 05:13:19;;;;;;;12.43;8.27;;;14.50;99.90;;;;;;4156778;28;20037;-72
2023/06/01 05:15:20;;;;;;;11.60;7.90;;;14.60;99.90;;;;;;4156963;28;20057;-72
2023/06/01 05:17:20;;;;;;;10.90;8.05;;;14.60;99.90;;;;;;4157580;28;20564;-72
2023/06/01 05:19:21;;;;;;;10.77;7.05;;;14.70;99.90;;;;;;4155823;28;20053;-73
2023/06/01 05:21:21;;;;;;;18.90;7.75;;;14.70;99.90;;;;;;4154526;28;20412;-71
2023/06/01 05:23:23;;;;;;;14.20;8.50;;;14.70;99.90;;;;;;4153918;28;20029;-71
2023/06/01 05:25:23;;;;;;;11.05;7.65;;;14.70;99.90;;;;;;4156572;28;20391;-71
2023/06/01 05:27:24;;;;;;;11.02;7.45;;;14.50;99.90;;;;;;4155439;28;20042;-72
2023/06/01 05:29:25;;;;;;;10.05;6.10;;;14.50;99.90;;;;;;4155030;28;20029;-72
2023/06/01 05:31:25;;;;;;;11.85;7.50;;;14.50;99.90;;;;;;4153235;28;20125;-72
2023/06/01 05:33:26;;;;;;;15.43;8.73;;;14.40;99.90;;;;;;4149895;28;20393;-71
2023/06/01 05:35:27;;;;;;;12.43;7.30;;;14.20;99.90;;;;;;4151992;28;20080;-71
2023/06/01 05:37:28;;;;;;;11.25;6.72;;;14.20;99.90;;;;;;4152896;28;20054;-71
2023/06/01 05:39:28;;;;;;;9.43;6.47;;;14.30;99.90;;;;;;4157816;28;20087;-71
2023/06/01 05:41:29;;;;;;;17.00;9.80;;;14.20;99.90;;;;;;4156727;28;20042;-71
2023/06/01 05:43:30;;;;;;;15.18;10.02;;;14.40;99.90;;;;;;4156561;28;20049;-71
2023/06/01 05:45:31;;;;;;;13.48;9.77;;;14.50;99.90;;;;;;4155870;28;20512;-70
2023/06/01 05:47:32;;;;;;;17.25;10.38;;;14.60;99.90;;;;;;4154750;28;20065;-71
2023/06/01 05:49:35;;;;;;;16.98;9.98;;;14.70;99.90;;;;;;4153427;28;21232;-72
2023/06/01 05:51:37;;;;;;;18.77;11.70;;;14.80;99.90;;;;;;4155135;28;20045;-72
2023/06/01 05:53:38;;;;;;;16.63;10.07;;;14.80;99.90;;;;;;4152859;28;20393;-71
2023/06/01 05:55:38;;;;;;;14.23;9.18;;;14.90;99.90;;;;;;4155239;28;20032;-71
2023/06/01 05:57:39;;;;;;;15.75;9.40;;;14.90;99.90;;;;;;4155267;28;20033;-71
2023/06/01 05:59:42;;;;;;;14.63;9.32;;;15.00;99.90;;;;;;4157396;28;20116;-71
2023/06/01 06:01:44;;;;;;;18.92;12.93;;;15.00;99.90;;;;;;4152131;28;20037;-72
2023/06/01 06:03:45;;;;;;;21.55;15.00;;;15.10;99.90;;;;;;4156633;28;20056;-72
2023/06/01 06:05:45;;;;;;;22.50;15.80;;;15.10;99.90;;;;;;4171359;28;20045;-72
2023/06/01 06:07:46;;;;;;;22.90;15.70;;;15.10;99.90;;;;;;4155642;28;20040;-72
2023/06/01 06:09:47;;;;;;;18.55;12.65;;;15.20;99.90;;;;;;4152113;28;20034;-71
2023/06/01 06:11:47;;;;;;;22.50;15.65;;;15.20;99.90;;;;;;4155185;28;20032;-72
2023/06/01 06:13:49;;;;;;;20.98;14.93;;;15.20;99.90;;;;;;4157928;28;20034;-72
2023/06/01 06:15:50;;;;;;;21.40;12.38;;;15.10;99.90;;;;;;4138609;28;20061;-72
2023/06/01 06:17:51;;;;;;;28.10;18.20;;;15.10;99.90;;;;;;4156711;28;20041;-72
2023/06/01 06:19:51;;;;;;;26.30;16.80;;;15.10;99.90;;;;;;4158021;28;20033;-72
2023/06/01 06:21:52;;;;;;;19.90;12.77;;;15.00;99.90;;;;;;4155899;28;20052;-72
2023/06/01 06:23:58;;;;;;;15.30;9.80;;;15.10;99.90;;;;;;4157193;28;20036;-72
2023/06/01 06:25:59;;;;;;;11.82;7.75;;;15.10;99.90;;;;;;4156199;28;20491;-71
2023/06/01 06:27:59;;;;;;;11.63;7.20;;;15.20;99.90;;;;;;4155436;28;20052;-71
2023/06/01 06:30:00;;;;;;;12.30;7.30;;;15.20;99.90;;;;;;4152882;28;20125;-72
2023/06/01 06:32:02;;;;;;;12.38;6.95;;;15.30;99.90;;;;;;4152922;28;20516;-72
2023/06/01 06:34:02;;;;;;;13.93;8.82;;;15.40;99.90;;;;;;4156721;28;20493;-72
2023/06/01 06:36:03;;;;;;;14.02;8.05;;;15.50;99.90;;;;;;4155026;28;20037;-73
2023/06/01 06:38:04;;;;;;;12.98;8.40;;;15.50;99.90;;;;;;4155768;28;20147;-73
2023/06/01 06:40:06;;;;;;;12.98;8.73;;;15.40;99.90;;;;;;4153096;28;20041;-72
2023/06/01 06:42:07;;;;;;;14.68;8.98;;;15.50;99.90;;;;;;4156381;28;20045;-72
2023/06/01 06:44:08;;;;;;;14.75;9.75;;;15.50;99.90;;;;;;4157341;28;20026;-72
2023/06/01 06:46:09;;;;;;;17.30;10.48;;;15.50;99.90;;;;;;4155709;28;20029;-72
2023/06/01 06:48:09;;;;;;;14.80;9.75;;;15.60;99.90;;;;;;4151806;28;20594;-73
2023/06/01 06:50:11;;;;;;;13.07;8.32;;;15.60;99.90;;;;;;4154968;28;20026;-74
2023/06/01 06:52:11;;;;;;;11.57;7.55;;;15.60;99.90;;;;;;4150401;28;20378;-72
2023/06/01 06:54:12;;;;;;;13.52;8.27;;;15.70;99.90;;;;;;4156226;28;20083;-72
2023/06/01 06:56:13;;;;;;;16.83;10.77;;;15.70;99.90;;;;;;4155901;28;20030;-72
2023/06/01 06:58:13;;;;;;;19.58;12.30;;;15.80;99.90;;;;;;4153871;28;20025;-72
2023/06/01 07:00:14;;;;;;;18.55;10.95;;;15.80;99.90;;;;;;4141731;28;20034;-72
2023/06/01 07:02:15;;;;;;;15.57;9.38;;;15.90;99.90;;;;;;4155226;28;20079;-72
2023/06/01 07:04:15;;;;;;;15.55;11.10;;;15.90;99.90;;;;;;4158422;28;20083;-72
2023/06/01 07:06:16;;;;;;;18.90;13.20;;;15.80;99.90;;;;;;4172165;28;20052;-71
2023/06/01 07:08:17;;;;;;;17.02;12.73;;;15.60;99.90;;;;;;4158360;28;20056;-72
2023/06/01 07:10:17;;;;;;;13.13;9.20;;;15.50;99.90;;;;;;4158509;28;20029;-71
2023/06/01 07:12:18;;;;;;;12.63;7.57;;;15.70;99.90;;;;;;4159603;28;21043;-72
2023/06/01 07:14:18;;;;;;;10.98;6.80;;;15.80;99.90;;;;;;4159234;28;20033;-71
2023/06/01 07:16:19;;;;;;;12.60;7.72;;;15.90;99.90;;;;;;4157907;28;20037;-71
2023/06/01 07:18:20;;;;;;;13.18;7.85;;;15.90;99.90;;;;;;4158186;28;20042;-71
2023/06/01 07:20:20;;;;;;;13.57;7.70;;;15.80;99.90;;;;;;4158231;28;20040;-71
2023/06/01 07:22:21;;;;;;;11.98;7.60;;;15.90;99.90;;;;;;4158214;28;20072;-71
2023/06/01 07:24:21;;;;;;;14.65;8.13;;;16.00;99.90;;;;;;4158454;28;20041;-71
2023/06/01 07:26:28;;;;;;;15.15;7.72;;;16.10;99.90;;;;;;4156771;28;20401;-70
2023/06/01 07:28:30;;;;;;;11.98;8.35;;;16.10;99.90;;;;;;4158427;28;20060;-68
2023/06/01 07:30:30;;;;;;;11.03;8.33;;;16.30;99.90;;;;;;4158412;28;20091;-71
2023/06/01 07:32:31;;;;;;;15.50;10.23;;;16.40;99.90;;;;;;4158274;28;20953;-71
2023/06/01 07:34:33;;;;;;;10.95;8.73;;;16.60;99.90;;;;;;4159969;28;20655;-71
2023/06/01 07:36:36;;;;;;;14.45;9.48;;;16.80;99.90;;;;;;4157235;28;20607;-70
2023/06/01 07:38:37;;;;;;;12.93;8.75;;;17.10;99.90;;;;;;4155825;28;20044;-70
2023/06/01 07:40:38;;;;;;;15.18;10.30;;;17.30;99.90;;;;;;4154196;28;20042;-70
2023/06/01 07:42:38;;;;;;;15.32;10.77;;;17.50;99.90;;;;;;4158201;28;20045;-71
2023/06/01 07:44:39;;;;;;;16.85;11.70;;;17.70;99.90;;;;;;4158778;28;20116;-70
2023/06/01 07:46:39;;;;;;;15.10;9.98;;;17.90;99.90;;;;;;4156538;28;20034;-70
2023/06/01 07:48:40;;;;;;;15.32;11.10;;;18.10;99.90;;;;;;4157468;28;20030;-70
2023/06/01 07:50:41;;;;;;;17.95;9.98;;;18.10;99.90;;;;;;4158830;28;20037;-71
2023/06/01 07:52:41;;;;;;;17.05;9.52;;;18.10;99.90;;;;;;4158708;28;20044;-70
2023/06/01 07:54:42;;;;;;;14.93;9.57;;;18.30;99.90;;;;;;4158480;28;20041;-70
2023/06/01 07:56:42;;;;;;;14.77;8.27;;;18.50;99.90;;;;;;4158754;28;20052;-70
2023/06/01 07:58:44;;;;;;;13.50;7.47;;;18.50;99.90;;;;;;4155856;28;20037;-70
2023/06/01 08:00:44;;;;;;;12.38;6.72;;;18.60;99.90;;;;;;4152874;28;20055;-71
2023/06/01 08:02:45;;;;;;;10.20;6.40;;;18.70;99.90;;;;;;4154442;28;20049;-71
2023/06/01 08:04:46;;;;;;;10.73;6.88;;;18.70;99.90;;;;;;4153830;28;20041;-71
2023/06/01 08:06:48;;;;;;;10.45;6.28;;;18.80;99.90;;;;;;4153949;28;20069;-70
2023/06/01 08:08:49;;;;;;;15.95;7.93;;;18.80;99.90;;;;;;4154987;28;20596;-72
2023/06/01 08:10:50;;;;;;;12.52;6.85;;;18.50;99.90;;;;;;4153052;28;22594;-71
2023/06/01 08:12:55;;;;;;;9.18;6.40;;;18.50;99.90;;;;;;4152811;28;20037;-72
2023/06/01 08:14:57;;;;;;;13.15;6.95;;;18.70;99.90;;;;;;4155827;28;20045;-72
2023/06/01 08:16:57;;;;;;;11.48;6.35;;;18.80;99.90;;;;;;4154077;28;20033;-71
2023/06/01 08:18:58;;;;;;;11.43;6.30;;;19.00;99.90;;;;;;4155032;28;20392;-71
2023/06/01 08:21:00;;;;;;;9.93;5.82;;;19.20;99.90;;;;;;4151155;28;20087;-71
2023/06/01 08:23:02;;;;;;;8.77;5.50;;;19.30;99.90;;;;;;4150641;28;20038;-70
2023/06/01 08:25:04;;;;;;;12.20;6.05;;;19.50;99.90;;;;;;4153766;28;20048;-73
2023/06/01 08:27:24;;;;;;;14.95;7.93;;;19.60;99.90;;;;;;4153262;28;20548;-71
2023/06/01 08:29:25;;;;;;;9.38;6.03;;;19.60;99.90;;;;;;4154541;28;20148;-70
2023/06/01 08:31:26;;;;;;;9.20;6.38;;;19.80;99.90;;;;;;4153778;28;20885;-72
2023/06/01 08:33:26;;;;;;;10.05;6.18;;;19.90;99.90;;;;;;4152818;28;20549;-71
2023/06/01 08:35:27;;;;;;;11.38;6.00;;;20.00;99.90;;;;;;4155102;28;20076;-72
2023/06/01 08:37:29;;;;;;;10.50;6.13;;;20.10;99.90;;;;;;4156133;28;20401;-71
2023/06/01 08:39:29;;;;;;;10.68;6.90;;;20.20;99.90;;;;;;4156220;28;20052;-71
2023/06/01 08:41:44;;;;;;;11.27;7.28;;;20.30;99.90;;;;;;4152247;28;20037;-72
2023/06/01 08:44:01;;;;;;;9.75;6.18;;;20.10;98.20;;;;;;4154629;28;20121;-71
2023/06/01 08:46:02;;;;;;;11.82;6.60;;;20.10;98.90;;;;;;4153813;28;20447;-69
2023/06/01 08:48:08;;;;;;;8.32;5.13;;;19.80;98.70;;;;;;4155432;28;20045;-70
2023/06/01 08:50:09;;;;;;;9.20;5.05;;;19.90;99.80;;;;;;4154845;28;20475;-73
2023/06/01 08:52:13;;;;;;;10.13;6.03;;;20.10;99.90;;;;;;4156160;28;20053;-71
2023/06/01 08:54:13;;;;;;;8.23;4.93;;;20.20;99.90;;;;;;4155816;28;20029;-72
2023/06/01 08:56:14;;;;;;;10.38;5.75;;;20.30;99.90;;;;;;4155569;28;20673;-71
2023/06/01 08:58:15;;;;;;;9.23;5.63;;;20.40;99.90;;;;;;4151969;28;20030;-71
2023/06/01 09:00:17;;;;;;;10.07;6.22;;;20.50;99.90;;;;;;4153816;28;20025;-71
2023/06/01 09:02:17;;;;;;;8.70;5.18;;;20.60;99.70;;;;;;4155799;28;20025;-71
2023/06/01 09:04:18;;;;;;;8.68;4.85;;;20.80;99.90;;;;;;4154629;28;20048;-71
2023/06/01 09:06:19;;;;;;;8.07;5.28;;;20.90;99.80;;;;;;4156192;28;20536;-70
2023/06/01 09:08:22;;;;;;;7.65;4.78;;;21.00;98.10;;;;;;4154749;28;20159;-71
2023/06/01 09:10:25;;;;;;;7.53;4.90;;;21.00;98.40;;;;;;4155462;28;20575;-71
2023/06/01 09:12:31;;;;;;;6.45;4.63;;;21.10;98.70;;;;;;4154798;28;20029;-71
2023/06/01 09:14:32;;;;;;;8.95;4.90;;;21.00;96.10;;;;;;4155065;28;20041;-70
2023/06/01 09:16:39;;;;;;;9.98;6.03;;;21.00;96.90;;;;;;4152121;28;20485;-63
2023/06/01 09:18:53;;;;;;;9.98;5.13;;;20.90;96.60;;;;;;4152760;28;20409;-63
2023/06/01 09:20:56;;;;;;;10.77;5.72;;;20.90;98.10;;;;;;4156822;28;20041;-62
2023/06/01 09:22:57;;;;;;;10.23;5.20;;;21.00;97.20;;;;;;4155156;28;20048;-62
2023/06/01 09:24:59;;;;;;;12.68;6.38;;;21.10;98.20;;;;;;4156259;28;20045;-62
2023/06/01 09:27:01;;;;;;;10.63;5.65;;;21.20;98.40;;;;;;4154906;28;20037;-62
2023/06/01 09:29:02;;;;;;;8.85;5.20;;;21.30;98.00;;;;;;4154662;28;20195;-62
2023/06/01 09:31:02;;;;;;;11.65;5.47;;;21.30;97.70;;;;;;4148918;28;20034;-63
2023/06/01 09:33:10;;;;;;;12.10;5.70;;;21.40;98.30;;;;;;4154180;28;20093;-63
2023/06/01 09:35:10;;;;;;;9.13;4.97;;;21.40;97.80;;;;;;4152048;28;20030;-63
2023/06/01 09:37:11;;;;;;;10.50;5.80;;;21.40;96.90;;;;;;4153805;28;20099;-62
2023/06/01 09:39:14;;;;;;;8.73;5.00;;;21.30;97.10;;;;;;4153701;28;20092;-62
2023/06/01 09:41:14;;;;;;;;;;;21.40;97.30;;;;;;4154590;28;20057;-62
2023/06/01 09:43:22;;;;;;;8.70;4.78;;;21.40;97.80;;;;;;4154286;28;19940;-62
2023/06/01 09:45:23;;;;;;;9.40;5.68;;;21.50;98.20;;;;;;4153836;28;20164;-62
2023/06/01 09:47:28;;;;;;;7.80;4.72;;;21.50;96.20;;;;;;4154898;28;20053;-62
2023/06/01 09:49:37;;;;;;;8.00;4.68;;;21.40;95.90;;;;;;4154792;28;20099;-63
2023/06/01 09:51:38;;;;;;;12.98;5.50;;;21.50;96.90;;;;;;4154608;28;20040;-62
2023/06/01 09:53:42;;;;;;;10.88;4.72;;;21.50;96.20;;;;;;4153238;28;20120;-63
2023/06/01 09:56:00;;;;;;;8.10;4.65;;;21.50;97.10;;;;;;4153125;28;20440;-62
2023/06/01 09:58:20;;;;;;;7.57;4.95;;;21.60;96.90;;;;;;4151756;28;20472;-63
2023/06/01 10:00:24;;;;;;;8.70;5.68;;;21.70;97.20;;;;;;4152675;28;20055;-61
2023/06/01 10:02:25;;;;;;;9.60;4.80;;;21.70;97.30;;;;;;4154593;28;20045;-62
2023/06/01 10:04:27;;;;;;;7.38;4.90;;;21.80;96.90;;;;;;4152783;28;20404;-62
2023/06/01 10:06:30;;;;;;;8.70;5.25;;;21.80;97.10;;;;;;4148700;28;20042;-62
2023/06/01 10:08:31;;;;;;;9.25;5.57;;;21.90;97.60;;;;;;4152537;28;20048;-62
2023/06/01 10:10:33;;;;;;;11.15;5.95;;;22.00;96.90;;;;;;4152289;28;20401;-62
2023/06/01 10:12:34;;;;;;;10.10;5.72;;;22.00;95.90;;;;;;4153895;28;20048;-63
2023/06/01 10:14:38;;;;;;;11.37;6.60;;;22.10;97.20;;;;;;4153413;28;20067;-63
2023/06/01 10:16:40;;;;;;;9.55;5.50;;;22.10;96.90;;;;;;4152155;28;20026;-62
2023/06/01 10:18:41;;;;;;;9.23;5.10;;;22.10;97.50;;;;;;4152271;28;20053;-62
2023/06/01 10:20:42;;;;;;;9.80;5.78;;;22.20;97.60;;;;;;4154813;28;20052;-63
2023/06/01 10:22:42;;;;;;;8.35;5.13;;;22.20;95.80;;;;;;4154385;28;20037;-63
2023/06/01 10:24:43;;;;;;;8.48;5.07;;;22.20;96.70;;;;;;4155833;28;20092;-63
2023/06/01 10:27:10;;;;;;;9.38;5.85;;;22.30;97.10;;;;;;4154511;28;20033;-62
2023/06/01 10:29:12;;;;;;;8.00;5.43;;;22.30;96.20;;;;;;4153004;28;20404;-62